sensor_id;sensor_type;location;lat;lon;timestamp;P1;durP1;ratioP1;P2;durP2;ratioP2
25962;SDS011;13760;52.588;13.406;2022-12-08T00:01:32;28.48;;;13.15;;
25962;SDS011;13760;52.588;13.406;2022-12-08T00:03:59;23.92;;;12.30;;
25962;SDS011;13760;52.588;13.406;2022-12-08T00:11:59;28.15;;;12.23;;
25962;SDS011;13760;52.588;13.406;2022-12-08T00:14:27;30.42;;;12.18;;
25962;SDS011;13760;52.588;13.406;2022-12-08T00:16:55;26.65;;;11.57;;
25962;SDS011;13760;52.588;13.406;2022-12-08T00:19:21;26.33;;;11.93;;
25962;SDS011;13760;52.588;13.406;2022-12-08T00:21:47;26.65;;;11.88;;
25962;SDS011;13760;52.588;13.406;2022-12-08T00:24:13;25.88;;;11.85;;
25962;SDS011;13760;52.588;13.406;2022-12-08T00:26:39;25.05;;;12.60;;
25962;SDS011;13760;52.588;13.406;2022-12-08T00:29:04;32.00;;;13.15;;
25962;SDS011;13760;52.588;13.406;2022-12-08T00:31:30;25.33;;;11.85;;
25962;SDS011;13760;52.588;13.406;2022-12-08T00:33:56;25.13;;;12.02;;
25962;SDS011;13760;52.588;13.406;2022-12-08T00:36:22;26.65;;;12.30;;
25962;SDS011;13760;52.588;13.406;2022-12-08T00:38:47;24.23;;;11.43;;
25962;SDS011;13760;52.588;13.406;2022-12-08T00:41:14;32.28;;;11.48;;
25962;SDS011;13760;52.588;13.406;2022-12-08T00:43:41;25.95;;;11.35;;
25962;SDS011;13760;52.588;13.406;2022-12-08T00:46:06;21.05;;;10.70;;
25962;SDS011;13760;52.588;13.406;2022-12-08T00:48:32;22.95;;;11.43;;
25962;SDS011;13760;52.588;13.406;2022-12-08T00:50:58;30.40;;;12.05;;
25962;SDS011;13760;52.588;13.406;2022-12-08T00:53:23;26.52;;;11.43;;
25962;SDS011;13760;52.588;13.406;2022-12-08T00:55:49;27.95;;;12.60;;
25962;SDS011;13760;52.588;13.406;2022-12-08T00:58:14;29.63;;;12.82;;
25962;SDS011;13760;52.588;13.406;2022-12-08T01:00:40;28.77;;;13.65;;
25962;SDS011;13760;52.588;13.406;2022-12-08T01:03:08;31.85;;;13.25;;
25962;SDS011;13760;52.588;13.406;2022-12-08T01:05:35;24.63;;;12.95;;
25962;SDS011;13760;52.588;13.406;2022-12-08T01:08:00;29.48;;;12.88;;
25962;SDS011;13760;52.588;13.406;2022-12-08T01:10:28;25.70;;;12.55;;
25962;SDS011;13760;52.588;13.406;2022-12-08T01:12:54;27.77;;;12.55;;
25962;SDS011;13760;52.588;13.406;2022-12-08T01:15:19;27.88;;;12.73;;
25962;SDS011;13760;52.588;13.406;2022-12-08T01:17:45;27.40;;;12.90;;
25962;SDS011;13760;52.588;13.406;2022-12-08T01:20:10;29.15;;;13.13;;
25962;SDS011;13760;52.588;13.406;2022-12-08T01:22:36;32.90;;;12.98;;
25962;SDS011;13760;52.588;13.406;2022-12-08T01:25:02;29.63;;;13.57;;
25962;SDS011;13760;52.588;13.406;2022-12-08T01:27:27;28.95;;;13.48;;
25962;SDS011;13760;52.588;13.406;2022-12-08T01:29:53;29.13;;;14.25;;
25962;SDS011;13760;52.588;13.406;2022-12-08T01:32:18;27.45;;;13.68;;
25962;SDS011;13760;52.588;13.406;2022-12-08T01:34:44;31.40;;;14.00;;
25962;SDS011;13760;52.588;13.406;2022-12-08T01:37:09;30.75;;;14.07;;
25962;SDS011;13760;52.588;13.406;2022-12-08T01:39:36;28.90;;;13.32;;
25962;SDS011;13760;52.588;13.406;2022-12-08T01:42:02;28.25;;;13.38;;
25962;SDS011;13760;52.588;13.406;2022-12-08T01:46:53;30.10;;;13.73;;
25962;SDS011;13760;52.588;13.406;2022-12-08T01:49:26;34.95;;;15.15;;
25962;SDS011;13760;52.588;13.406;2022-12-08T01:52:04;32.78;;;15.73;;
25962;SDS011;13760;52.588;13.406;2022-12-08T01:54:55;30.92;;;14.52;;
25962;SDS011;13760;52.588;13.406;2022-12-08T01:57:36;29.27;;;15.13;;
25962;SDS011;13760;52.588;13.406;2022-12-08T02:00:07;26.60;;;15.45;;
25962;SDS011;13760;52.588;13.406;2022-12-08T02:02:38;36.75;;;14.93;;
25962;SDS011;13760;52.588;13.406;2022-12-08T02:05:13;35.60;;;15.05;;
25962;SDS011;13760;52.588;13.406;2022-12-08T02:07:40;34.63;;;16.58;;
25962;SDS011;13760;52.588;13.406;2022-12-08T02:10:07;32.20;;;14.65;;
25962;SDS011;13760;52.588;13.406;2022-12-08T02:12:38;34.20;;;15.48;;
25962;SDS011;13760;52.588;13.406;2022-12-08T02:15:03;30.58;;;14.63;;
25962;SDS011;13760;52.588;13.406;2022-12-08T02:20:17;30.80;;;14.55;;
25962;SDS011;13760;52.588;13.406;2022-12-08T02:23:07;30.27;;;14.68;;
25962;SDS011;13760;52.588;13.406;2022-12-08T02:28:45;29.15;;;14.13;;
25962;SDS011;13760;52.588;13.406;2022-12-08T02:31:41;26.05;;;13.18;;
25962;SDS011;13760;52.588;13.406;2022-12-08T02:34:22;30.02;;;13.27;;
25962;SDS011;13760;52.588;13.406;2022-12-08T02:37:11;33.92;;;14.05;;
25962;SDS011;13760;52.588;13.406;2022-12-08T02:42:25;32.00;;;14.70;;
25962;SDS011;13760;52.588;13.406;2022-12-08T02:47:46;35.42;;;15.07;;
25962;SDS011;13760;52.588;13.406;2022-12-08T02:50:12;28.58;;;15.35;;
25962;SDS011;13760;52.588;13.406;2022-12-08T02:52:43;29.05;;;15.00;;
25962;SDS011;13760;52.588;13.406;2022-12-08T02:55:12;31.90;;;15.63;;
25962;SDS011;13760;52.588;13.406;2022-12-08T03:00:07;30.85;;;14.80;;
25962;SDS011;13760;52.588;13.406;2022-12-08T03:02:40;32.55;;;14.77;;
25962;SDS011;13760;52.588;13.406;2022-12-08T03:10:40;34.58;;;13.95;;
25962;SDS011;13760;52.588;13.406;2022-12-08T03:13:14;25.70;;;13.95;;
25962;SDS011;13760;52.588;13.406;2022-12-08T03:15:44;28.40;;;13.98;;
25962;SDS011;13760;52.588;13.406;2022-12-08T03:18:13;20.27;;;10.23;;
25962;SDS011;13760;52.588;13.406;2022-12-08T03:20:41;30.30;;;14.13;;
25962;SDS011;13760;52.588;13.406;2022-12-08T03:23:09;27.48;;;12.85;;
25962;SDS011;13760;52.588;13.406;2022-12-08T03:25:42;25.35;;;12.32;;
25962;SDS011;13760;52.588;13.406;2022-12-08T03:28:12;25.02;;;12.32;;
25962;SDS011;13760;52.588;13.406;2022-12-08T03:30:38;25.52;;;13.00;;
25962;SDS011;13760;52.588;13.406;2022-12-08T03:33:08;22.25;;;10.93;;
25962;SDS011;13760;52.588;13.406;2022-12-08T03:35:44;23.35;;;11.93;;
25962;SDS011;13760;52.588;13.406;2022-12-08T03:38:12;18.77;;;10.35;;
25962;SDS011;13760;52.588;13.406;2022-12-08T03:40:39;22.38;;;10.45;;
25962;SDS011;13760;52.588;13.406;2022-12-08T03:43:05;20.15;;;9.48;;
25962;SDS011;13760;52.588;13.406;2022-12-08T03:48:53;16.75;;;9.30;;
25962;SDS011;13760;52.588;13.406;2022-12-08T03:51:19;16.67;;;8.93;;
25962;SDS011;13760;52.588;13.406;2022-12-08T03:53:46;19.05;;;8.63;;
25962;SDS011;13760;52.588;13.406;2022-12-08T03:56:18;18.00;;;8.77;;
25962;SDS011;13760;52.588;13.406;2022-12-08T03:58:48;16.65;;;8.93;;
25962;SDS011;13760;52.588;13.406;2022-12-08T04:01:13;16.25;;;9.50;;
25962;SDS011;13760;52.588;13.406;2022-12-08T04:03:39;17.23;;;9.35;;
25962;SDS011;13760;52.588;13.406;2022-12-08T04:06:04;19.38;;;9.73;;
25962;SDS011;13760;52.588;13.406;2022-12-08T04:08:31;18.08;;;10.45;;
25962;SDS011;13760;52.588;13.406;2022-12-08T04:10:56;20.45;;;10.63;;
25962;SDS011;13760;52.588;13.406;2022-12-08T04:13:22;20.70;;;10.25;;
25962;SDS011;13760;52.588;13.406;2022-12-08T04:15:47;21.85;;;10.60;;
25962;SDS011;13760;52.588;13.406;2022-12-08T04:18:13;23.20;;;11.20;;
25962;SDS011;13760;52.588;13.406;2022-12-08T04:20:40;21.92;;;11.45;;
25962;SDS011;13760;52.588;13.406;2022-12-08T04:23:06;25.30;;;11.45;;
25962;SDS011;13760;52.588;13.406;2022-12-08T04:25:33;22.75;;;11.75;;
25962;SDS011;13760;52.588;13.406;2022-12-08T04:27:59;21.70;;;11.55;;
25962;SDS011;13760;52.588;13.406;2022-12-08T04:30:24;26.40;;;11.95;;
25962;SDS011;13760;52.588;13.406;2022-12-08T04:32:50;23.90;;;13.05;;
25962;SDS011;13760;52.588;13.406;2022-12-08T04:35:15;23.92;;;12.65;;
25962;SDS011;13760;52.588;13.406;2022-12-08T04:37:41;27.42;;;13.23;;
25962;SDS011;13760;52.588;13.406;2022-12-08T04:40:08;26.45;;;13.05;;
25962;SDS011;13760;52.588;13.406;2022-12-08T04:42:34;26.17;;;13.50;;
25962;SDS011;13760;52.588;13.406;2022-12-08T04:45:00;27.63;;;13.60;;
25962;SDS011;13760;52.588;13.406;2022-12-08T04:47:26;25.85;;;13.13;;
25962;SDS011;13760;52.588;13.406;2022-12-08T04:49:51;29.15;;;14.13;;
25962;SDS011;13760;52.588;13.406;2022-12-08T04:52:17;31.75;;;14.32;;
25962;SDS011;13760;52.588;13.406;2022-12-08T04:54:42;30.05;;;14.30;;
25962;SDS011;13760;52.588;13.406;2022-12-08T04:57:08;27.90;;;13.82;;
25962;SDS011;13760;52.588;13.406;2022-12-08T04:59:33;34.40;;;15.05;;
25962;SDS011;13760;52.588;13.406;2022-12-08T05:01:59;32.83;;;15.77;;
25962;SDS011;13760;52.588;13.406;2022-12-08T05:04:24;31.05;;;14.77;;
25962;SDS011;13760;52.588;13.406;2022-12-08T05:06:50;35.33;;;14.73;;
25962;SDS011;13760;52.588;13.406;2022-12-08T05:09:15;31.65;;;15.23;;
25962;SDS011;13760;52.588;13.406;2022-12-08T05:11:41;35.05;;;16.48;;
25962;SDS011;13760;52.588;13.406;2022-12-08T05:14:10;34.75;;;17.30;;
25962;SDS011;13760;52.588;13.406;2022-12-08T05:16:36;37.53;;;17.27;;
25962;SDS011;13760;52.588;13.406;2022-12-08T05:19:03;33.03;;;16.83;;
25962;SDS011;13760;52.588;13.406;2022-12-08T05:21:28;37.15;;;18.85;;
25962;SDS011;13760;52.588;13.406;2022-12-08T05:23:57;37.50;;;17.75;;
25962;SDS011;13760;52.588;13.406;2022-12-08T05:26:34;38.65;;;17.60;;
25962;SDS011;13760;52.588;13.406;2022-12-08T05:28:59;35.67;;;17.27;;
25962;SDS011;13760;52.588;13.406;2022-12-08T05:31:29;33.63;;;17.27;;
25962;SDS011;13760;52.588;13.406;2022-12-08T05:33:57;39.22;;;17.83;;
25962;SDS011;13760;52.588;13.406;2022-12-08T05:36:23;37.92;;;18.17;;
25962;SDS011;13760;52.588;13.406;2022-12-08T05:38:48;46.42;;;19.80;;
25962;SDS011;13760;52.588;13.406;2022-12-08T05:41:18;41.10;;;19.45;;
25962;SDS011;13760;52.588;13.406;2022-12-08T05:43:44;41.78;;;20.35;;
25962;SDS011;13760;52.588;13.406;2022-12-08T05:46:10;39.85;;;18.15;;
25962;SDS011;13760;52.588;13.406;2022-12-08T05:48:36;42.10;;;19.70;;
25962;SDS011;13760;52.588;13.406;2022-12-08T05:51:02;36.90;;;19.33;;
25962;SDS011;13760;52.588;13.406;2022-12-08T05:53:28;49.28;;;20.67;;
25962;SDS011;13760;52.588;13.406;2022-12-08T05:55:54;47.10;;;21.00;;
25962;SDS011;13760;52.588;13.406;2022-12-08T05:58:20;45.50;;;20.77;;
25962;SDS011;13760;52.588;13.406;2022-12-08T06:00:47;44.80;;;20.23;;
25962;SDS011;13760;52.588;13.406;2022-12-08T06:03:14;48.13;;;21.20;;
25962;SDS011;13760;52.588;13.406;2022-12-08T06:05:41;46.95;;;20.48;;
25962;SDS011;13760;52.588;13.406;2022-12-08T06:08:08;47.42;;;20.60;;
25962;SDS011;13760;52.588;13.406;2022-12-08T06:10:34;49.67;;;21.52;;
25962;SDS011;13760;52.588;13.406;2022-12-08T06:12:59;52.15;;;22.92;;
25962;SDS011;13760;52.588;13.406;2022-12-08T06:15:25;57.70;;;23.42;;
25962;SDS011;13760;52.588;13.406;2022-12-08T06:17:50;58.72;;;23.02;;
25962;SDS011;13760;52.588;13.406;2022-12-08T06:20:16;60.70;;;23.77;;
25962;SDS011;13760;52.588;13.406;2022-12-08T06:22:42;57.72;;;24.13;;
25962;SDS011;13760;52.588;13.406;2022-12-08T06:25:07;55.00;;;24.13;;
25962;SDS011;13760;52.588;13.406;2022-12-08T06:27:33;57.72;;;24.20;;
25962;SDS011;13760;52.588;13.406;2022-12-08T06:29:59;67.63;;;25.13;;
25962;SDS011;13760;52.588;13.406;2022-12-08T06:32:24;56.63;;;24.77;;
25962;SDS011;13760;52.588;13.406;2022-12-08T06:34:50;59.38;;;24.85;;
25962;SDS011;13760;52.588;13.406;2022-12-08T06:37:16;60.38;;;25.13;;
25962;SDS011;13760;52.588;13.406;2022-12-08T06:39:42;71.85;;;26.35;;
25962;SDS011;13760;52.588;13.406;2022-12-08T06:42:07;63.45;;;25.02;;
25962;SDS011;13760;52.588;13.406;2022-12-08T06:44:51;57.00;;;26.05;;
25962;SDS011;13760;52.588;13.406;2022-12-08T06:47:17;61.05;;;25.75;;
25962;SDS011;13760;52.588;13.406;2022-12-08T06:49:45;64.43;;;25.67;;
25962;SDS011;13760;52.588;13.406;2022-12-08T06:52:10;65.95;;;25.70;;
25962;SDS011;13760;52.588;13.406;2022-12-08T06:54:36;64.15;;;26.38;;
25962;SDS011;13760;52.588;13.406;2022-12-08T06:57:01;66.95;;;26.08;;
25962;SDS011;13760;52.588;13.406;2022-12-08T06:59:27;68.88;;;26.55;;
25962;SDS011;13760;52.588;13.406;2022-12-08T07:01:52;72.07;;;27.05;;
25962;SDS011;13760;52.588;13.406;2022-12-08T07:04:17;66.57;;;25.30;;
25962;SDS011;13760;52.588;13.406;2022-12-08T07:06:43;61.67;;;25.77;;
25962;SDS011;13760;52.588;13.406;2022-12-08T07:09:08;59.17;;;25.92;;
25962;SDS011;13760;52.588;13.406;2022-12-08T07:11:34;69.20;;;26.05;;
25962;SDS011;13760;52.588;13.406;2022-12-08T07:14:01;69.38;;;26.15;;
25962;SDS011;13760;52.588;13.406;2022-12-08T07:16:27;63.85;;;26.52;;
25962;SDS011;13760;52.588;13.406;2022-12-08T07:18:52;60.47;;;25.08;;
25962;SDS011;13760;52.588;13.406;2022-12-08T07:21:18;72.20;;;26.85;;
25962;SDS011;13760;52.588;13.406;2022-12-08T07:23:46;71.93;;;27.55;;
25962;SDS011;13760;52.588;13.406;2022-12-08T07:26:14;69.43;;;27.05;;
25962;SDS011;13760;52.588;13.406;2022-12-08T07:28:40;68.45;;;26.23;;
25962;SDS011;13760;52.588;13.406;2022-12-08T07:31:07;74.63;;;26.75;;
25962;SDS011;13760;52.588;13.406;2022-12-08T07:33:41;67.57;;;26.70;;
25962;SDS011;13760;52.588;13.406;2022-12-08T07:36:07;67.57;;;26.52;;
25962;SDS011;13760;52.588;13.406;2022-12-08T07:38:32;66.18;;;26.10;;
25962;SDS011;13760;52.588;13.406;2022-12-08T07:40:58;63.05;;;25.90;;
25962;SDS011;13760;52.588;13.406;2022-12-08T07:43:24;60.17;;;25.30;;
25962;SDS011;13760;52.588;13.406;2022-12-08T07:45:50;65.68;;;27.55;;
25962;SDS011;13760;52.588;13.406;2022-12-08T07:48:15;72.80;;;25.75;;
25962;SDS011;13760;52.588;13.406;2022-12-08T07:50:41;61.03;;;25.95;;
25962;SDS011;13760;52.588;13.406;2022-12-08T07:53:07;72.38;;;26.80;;
25962;SDS011;13760;52.588;13.406;2022-12-08T07:55:33;77.55;;;26.90;;
25962;SDS011;13760;52.588;13.406;2022-12-08T07:57:59;83.55;;;28.02;;
25962;SDS011;13760;52.588;13.406;2022-12-08T08:00:24;74.28;;;27.85;;
25962;SDS011;13760;52.588;13.406;2022-12-08T08:02:50;64.35;;;27.08;;
25962;SDS011;13760;52.588;13.406;2022-12-08T08:05:15;72.15;;;27.08;;
25962;SDS011;13760;52.588;13.406;2022-12-08T08:07:41;65.68;;;27.33;;
25962;SDS011;13760;52.588;13.406;2022-12-08T08:10:08;71.43;;;25.95;;
25962;SDS011;13760;52.588;13.406;2022-12-08T08:12:35;62.65;;;25.35;;
25962;SDS011;13760;52.588;13.406;2022-12-08T08:15:02;69.38;;;26.35;;
25962;SDS011;13760;52.588;13.406;2022-12-08T08:17:29;68.13;;;27.02;;
25962;SDS011;13760;52.588;13.406;2022-12-08T08:19:55;62.10;;;26.08;;
25962;SDS011;13760;52.588;13.406;2022-12-08T08:22:21;63.28;;;26.98;;
25962;SDS011;13760;52.588;13.406;2022-12-08T08:24:46;72.78;;;26.48;;
25962;SDS011;13760;52.588;13.406;2022-12-08T08:27:12;73.82;;;27.35;;
25962;SDS011;13760;52.588;13.406;2022-12-08T08:29:38;67.68;;;26.90;;
25962;SDS011;13760;52.588;13.406;2022-12-08T08:32:03;74.10;;;26.63;;
25962;SDS011;13760;52.588;13.406;2022-12-08T08:34:29;71.72;;;25.85;;
25962;SDS011;13760;52.588;13.406;2022-12-08T08:36:55;72.93;;;27.05;;
25962;SDS011;13760;52.588;13.406;2022-12-08T08:39:20;72.72;;;26.70;;
25962;SDS011;13760;52.588;13.406;2022-12-08T08:41:46;72.55;;;26.48;;
25962;SDS011;13760;52.588;13.406;2022-12-08T08:44:12;62.63;;;25.73;;
25962;SDS011;13760;52.588;13.406;2022-12-08T08:46:38;59.75;;;25.30;;
25962;SDS011;13760;52.588;13.406;2022-12-08T08:49:04;59.25;;;24.65;;
25962;SDS011;13760;52.588;13.406;2022-12-08T08:51:30;64.38;;;25.05;;
25962;SDS011;13760;52.588;13.406;2022-12-08T08:53:56;52.75;;;23.33;;
25962;SDS011;13760;52.588;13.406;2022-12-08T08:56:21;59.25;;;25.60;;
25962;SDS011;13760;52.588;13.406;2022-12-08T08:58:47;60.65;;;24.67;;
25962;SDS011;13760;52.588;13.406;2022-12-08T09:01:15;50.50;;;24.25;;
25962;SDS011;13760;52.588;13.406;2022-12-08T09:03:45;54.25;;;24.33;;
25962;SDS011;13760;52.588;13.406;2022-12-08T09:06:12;58.40;;;23.83;;
25962;SDS011;13760;52.588;13.406;2022-12-08T09:08:38;57.30;;;23.73;;
25962;SDS011;13760;52.588;13.406;2022-12-08T09:11:04;48.03;;;23.38;;
25962;SDS011;13760;52.588;13.406;2022-12-08T09:13:30;53.83;;;24.02;;
25962;SDS011;13760;52.588;13.406;2022-12-08T09:15:55;51.70;;;23.10;;
25962;SDS011;13760;52.588;13.406;2022-12-08T09:18:21;59.40;;;23.30;;
25962;SDS011;13760;52.588;13.406;2022-12-08T09:20:46;52.92;;;23.55;;
25962;SDS011;13760;52.588;13.406;2022-12-08T09:23:12;51.25;;;22.92;;
25962;SDS011;13760;52.588;13.406;2022-12-08T09:25:38;50.70;;;23.70;;
25962;SDS011;13760;52.588;13.406;2022-12-08T09:28:07;51.35;;;22.83;;
25962;SDS011;13760;52.588;13.406;2022-12-08T09:30:32;49.60;;;23.35;;
25962;SDS011;13760;52.588;13.406;2022-12-08T09:32:58;53.28;;;22.65;;
25962;SDS011;13760;52.588;13.406;2022-12-08T09:35:23;49.08;;;25.35;;
25962;SDS011;13760;52.588;13.406;2022-12-08T09:37:49;51.75;;;24.08;;
25962;SDS011;13760;52.588;13.406;2022-12-08T09:40:15;60.03;;;23.05;;
25962;SDS011;13760;52.588;13.406;2022-12-08T09:45:14;57.45;;;24.30;;
25962;SDS011;13760;52.588;13.406;2022-12-08T09:47:42;53.72;;;23.80;;
25962;SDS011;13760;52.588;13.406;2022-12-08T09:52:47;55.92;;;22.95;;
25962;SDS011;13760;52.588;13.406;2022-12-08T09:55:23;57.80;;;23.15;;
25962;SDS011;13760;52.588;13.406;2022-12-08T09:57:59;49.45;;;22.58;;
25962;SDS011;13760;52.588;13.406;2022-12-08T10:00:27;49.95;;;23.10;;
25962;SDS011;13760;52.588;13.406;2022-12-08T10:02:52;43.75;;;22.70;;
25962;SDS011;13760;52.588;13.406;2022-12-08T10:05:19;52.50;;;24.15;;
25962;SDS011;13760;52.588;13.406;2022-12-08T10:07:48;47.92;;;22.58;;
25962;SDS011;13760;52.588;13.406;2022-12-08T10:10:45;48.20;;;24.23;;
25962;SDS011;13760;52.588;13.406;2022-12-08T10:15:57;48.50;;;22.20;;
25962;SDS011;13760;52.588;13.406;2022-12-08T10:18:36;49.38;;;21.70;;
25962;SDS011;13760;52.588;13.406;2022-12-08T10:21:15;47.95;;;22.08;;
25962;SDS011;13760;52.588;13.406;2022-12-08T10:26:17;51.33;;;20.33;;
25962;SDS011;13760;52.588;13.406;2022-12-08T10:28:44;43.70;;;21.48;;
25962;SDS011;13760;52.588;13.406;2022-12-08T10:31:17;51.33;;;21.65;;
25962;SDS011;13760;52.588;13.406;2022-12-08T10:33:45;44.08;;;21.13;;
25962;SDS011;13760;52.588;13.406;2022-12-08T10:36:13;42.75;;;21.48;;
25962;SDS011;13760;52.588;13.406;2022-12-08T10:38:39;44.25;;;20.98;;
25962;SDS011;13760;52.588;13.406;2022-12-08T10:41:14;58.35;;;21.80;;
25962;SDS011;13760;52.588;13.406;2022-12-08T10:46:14;47.30;;;20.83;;
25962;SDS011;13760;52.588;13.406;2022-12-08T10:48:48;42.95;;;20.67;;
25962;SDS011;13760;52.588;13.406;2022-12-08T10:54:04;42.50;;;20.80;;
25962;SDS011;13760;52.588;13.406;2022-12-08T10:56:52;44.35;;;20.77;;
25962;SDS011;13760;52.588;13.406;2022-12-08T10:59:19;43.45;;;21.25;;
25962;SDS011;13760;52.588;13.406;2022-12-08T11:01:48;47.45;;;21.30;;
25962;SDS011;13760;52.588;13.406;2022-12-08T11:04:19;37.13;;;19.27;;
25962;SDS011;13760;52.588;13.406;2022-12-08T11:06:47;40.25;;;18.38;;
25962;SDS011;13760;52.588;13.406;2022-12-08T11:14:23;27.38;;;13.88;;
25962;SDS011;13760;52.588;13.406;2022-12-08T11:16:55;30.05;;;16.70;;
25962;SDS011;13760;52.588;13.406;2022-12-08T11:19:29;32.88;;;17.17;;
25962;SDS011;13760;52.588;13.406;2022-12-08T11:21:54;31.75;;;16.67;;
25962;SDS011;13760;52.588;13.406;2022-12-08T11:24:21;33.60;;;17.40;;
25962;SDS011;13760;52.588;13.406;2022-12-08T11:29:25;32.60;;;17.65;;
25962;SDS011;13760;52.588;13.406;2022-12-08T11:31:56;31.83;;;16.77;;
25962;SDS011;13760;52.588;13.406;2022-12-08T11:34:29;36.72;;;16.33;;
25962;SDS011;13760;52.588;13.406;2022-12-08T11:37:14;33.75;;;16.58;;
25962;SDS011;13760;52.588;13.406;2022-12-08T11:39:48;32.90;;;16.23;;
25962;SDS011;13760;52.588;13.406;2022-12-08T11:44:45;27.98;;;14.07;;
25962;SDS011;13760;52.588;13.406;2022-12-08T11:47:42;29.15;;;14.00;;
25962;SDS011;13760;52.588;13.406;2022-12-08T11:53:17;26.00;;;14.27;;
25962;SDS011;13760;52.588;13.406;2022-12-08T11:55:53;30.55;;;14.85;;
25962;SDS011;13760;52.588;13.406;2022-12-08T11:58:33;31.02;;;15.73;;
25962;SDS011;13760;52.588;13.406;2022-12-08T12:01:03;32.55;;;16.70;;
25962;SDS011;13760;52.588;13.406;2022-12-08T12:03:33;31.58;;;17.02;;
25962;SDS011;13760;52.588;13.406;2022-12-08T12:08:57;33.17;;;16.42;;
25962;SDS011;13760;52.588;13.406;2022-12-08T12:17:25;42.53;;;18.23;;
25962;SDS011;13760;52.588;13.406;2022-12-08T12:20:12;35.35;;;18.05;;
25962;SDS011;13760;52.588;13.406;2022-12-08T12:22:42;36.75;;;18.65;;
25962;SDS011;13760;52.588;13.406;2022-12-08T12:25:17;41.67;;;18.15;;
25962;SDS011;13760;52.588;13.406;2022-12-08T12:27:45;42.78;;;18.50;;
25962;SDS011;13760;52.588;13.406;2022-12-08T12:30:21;46.53;;;20.35;;
25962;SDS011;13760;52.588;13.406;2022-12-08T12:35:32;47.17;;;19.88;;
25962;SDS011;13760;52.588;13.406;2022-12-08T12:38:05;48.90;;;20.50;;
25962;SDS011;13760;52.588;13.406;2022-12-08T12:40:59;47.78;;;18.70;;
25962;SDS011;13760;52.588;13.406;2022-12-08T12:43:28;47.17;;;20.55;;
25962;SDS011;13760;52.588;13.406;2022-12-08T12:48:47;46.03;;;21.27;;
25962;SDS011;13760;52.588;13.406;2022-12-08T12:54:19;41.20;;;18.42;;
25962;SDS011;13760;52.588;13.406;2022-12-08T13:01:53;36.65;;;18.48;;
25962;SDS011;13760;52.588;13.406;2022-12-08T13:04:27;43.58;;;19.45;;
25962;SDS011;13760;52.588;13.406;2022-12-08T13:06:58;40.30;;;18.23;;
25962;SDS011;13760;52.588;13.406;2022-12-08T13:09:29;43.92;;;18.48;;
25962;SDS011;13760;52.588;13.406;2022-12-08T13:11:58;39.83;;;19.77;;
25962;SDS011;13760;52.588;13.406;2022-12-08T13:14:33;39.50;;;18.70;;
25962;SDS011;13760;52.588;13.406;2022-12-08T13:17:01;36.40;;;17.90;;
25962;SDS011;13760;52.588;13.406;2022-12-08T13:19:32;38.47;;;18.02;;
25962;SDS011;13760;52.588;13.406;2022-12-08T13:22:00;36.50;;;17.73;;
25962;SDS011;13760;52.588;13.406;2022-12-08T13:24:27;36.90;;;18.17;;
25962;SDS011;13760;52.588;13.406;2022-12-08T13:29:30;35.00;;;15.88;;
25962;SDS011;13760;52.588;13.406;2022-12-08T13:31:57;34.63;;;16.20;;
25962;SDS011;13760;52.588;13.406;2022-12-08T13:34:34;28.58;;;15.02;;
25962;SDS011;13760;52.588;13.406;2022-12-08T13:39:41;29.25;;;13.02;;
25962;SDS011;13760;52.588;13.406;2022-12-08T13:44:42;26.90;;;14.02;;
25962;SDS011;13760;52.588;13.406;2022-12-08T13:47:22;26.42;;;12.68;;
25962;SDS011;13760;52.588;13.406;2022-12-08T13:49:55;25.65;;;14.80;;
25962;SDS011;13760;52.588;13.406;2022-12-08T13:52:31;29.50;;;14.32;;
25962;SDS011;13760;52.588;13.406;2022-12-08T13:55:01;29.63;;;14.48;;
25962;SDS011;13760;52.588;13.406;2022-12-08T13:57:31;28.00;;;14.23;;
25962;SDS011;13760;52.588;13.406;2022-12-08T14:00:02;27.95;;;15.88;;
25962;SDS011;13760;52.588;13.406;2022-12-08T14:02:35;29.88;;;15.65;;
25962;SDS011;13760;52.588;13.406;2022-12-08T14:05:03;31.85;;;15.48;;
25962;SDS011;13760;52.588;13.406;2022-12-08T14:07:30;33.15;;;16.42;;
25962;SDS011;13760;52.588;13.406;2022-12-08T14:09:57;32.40;;;16.40;;
25962;SDS011;13760;52.588;13.406;2022-12-08T14:12:24;28.63;;;15.20;;
25962;SDS011;13760;52.588;13.406;2022-12-08T14:14:52;27.25;;;15.98;;
25962;SDS011;13760;52.588;13.406;2022-12-08T14:17:23;29.73;;;16.23;;
25962;SDS011;13760;52.588;13.406;2022-12-08T14:20:02;34.53;;;17.42;;
25962;SDS011;13760;52.588;13.406;2022-12-08T14:22:47;33.22;;;16.95;;
25962;SDS011;13760;52.588;13.406;2022-12-08T14:25:14;33.30;;;16.83;;
25962;SDS011;13760;52.588;13.406;2022-12-08T14:27:41;35.65;;;18.08;;
25962;SDS011;13760;52.588;13.406;2022-12-08T14:30:20;32.70;;;17.65;;
25962;SDS011;13760;52.588;13.406;2022-12-08T14:32:54;40.65;;;18.88;;
25962;SDS011;13760;52.588;13.406;2022-12-08T14:37:53;36.30;;;18.92;;
25962;SDS011;13760;52.588;13.406;2022-12-08T14:40:22;39.70;;;19.63;;
25962;SDS011;13760;52.588;13.406;2022-12-08T14:45:32;37.63;;;18.88;;
25962;SDS011;13760;52.588;13.406;2022-12-08T14:51:06;41.22;;;19.80;;
25962;SDS011;13760;52.588;13.406;2022-12-08T14:54:01;41.13;;;18.88;;
25962;SDS011;13760;52.588;13.406;2022-12-08T14:56:34;39.90;;;19.63;;
25962;SDS011;13760;52.588;13.406;2022-12-08T14:59:19;40.45;;;19.63;;
25962;SDS011;13760;52.588;13.406;2022-12-08T15:01:51;46.20;;;19.83;;
25962;SDS011;13760;52.588;13.406;2022-12-08T15:04:37;48.20;;;19.92;;
25962;SDS011;13760;52.588;13.406;2022-12-08T15:07:16;38.55;;;20.63;;
25962;SDS011;13760;52.588;13.406;2022-12-08T15:09:48;40.70;;;20.27;;
25962;SDS011;13760;52.588;13.406;2022-12-08T15:12:30;46.13;;;19.33;;
25962;SDS011;13760;52.588;13.406;2022-12-08T15:15:01;44.03;;;21.48;;
25962;SDS011;13760;52.588;13.406;2022-12-08T15:20:29;45.80;;;22.27;;
25962;SDS011;13760;52.588;13.406;2022-12-08T15:22:57;47.40;;;21.55;;
25962;SDS011;13760;52.588;13.406;2022-12-08T15:25:23;46.50;;;21.20;;
25962;SDS011;13760;52.588;13.406;2022-12-08T15:27:49;44.33;;;21.52;;
25962;SDS011;13760;52.588;13.406;2022-12-08T15:30:17;45.25;;;21.15;;
25962;SDS011;13760;52.588;13.406;2022-12-08T15:32:44;47.65;;;22.70;;
25962;SDS011;13760;52.588;13.406;2022-12-08T15:35:13;58.17;;;22.52;;
25962;SDS011;13760;52.588;13.406;2022-12-08T15:37:39;48.17;;;22.42;;
25962;SDS011;13760;52.588;13.406;2022-12-08T15:40:05;48.55;;;22.08;;
25962;SDS011;13760;52.588;13.406;2022-12-08T15:42:31;47.78;;;21.45;;
25962;SDS011;13760;52.588;13.406;2022-12-08T15:44:56;41.75;;;22.95;;
25962;SDS011;13760;52.588;13.406;2022-12-08T15:47:22;56.92;;;23.05;;
25962;SDS011;13760;52.588;13.406;2022-12-08T15:49:50;48.50;;;23.60;;
25962;SDS011;13760;52.588;13.406;2022-12-08T15:52:20;49.33;;;22.98;;
25962;SDS011;13760;52.588;13.406;2022-12-08T15:54:47;51.25;;;23.42;;
25962;SDS011;13760;52.588;13.406;2022-12-08T15:57:17;61.13;;;25.63;;
25962;SDS011;13760;52.588;13.406;2022-12-08T15:59:43;50.33;;;24.73;;